You are not logged in, Click here to log in
金斯福德·史密斯國際機場(雪梨)SYD / YSSY 新南威爾斯州雪梨馬斯覺
ICAO: YSSY Country: 新南威爾斯州雪梨馬斯覺
Latitude: -33.9399 Longitude: 151.175
Total Arrivals: 26 Total Departures: 24
Latest Arrival: CX2069 (VHHH-YSSY)KE. CHIH-HAO Latest Departure: EAQ401 (YSSY-YMML)KE. CHIH-HAO
Scenery:
METAR : YSSY 101330Z 20021KT 9999 FEW018 BKN024 19/15 Q1017

金斯福德·史密斯國際機場(雪梨)SYD

You are accessing this site from IP address 18.205.60.226. Virtual Airline. CMS by phpVMS.Website designed by Zumeweb and edited by Theo Bearman.
There is 0 User(s) Online: | and 8 Guest(s) Online.
All information on this site is for fight simulation purposes only. This site is for flight logging for pilots of Virtual Airline&模擬飛行論壇 FlySim only.